sensor_id;sensor_type;location;lat;lon;timestamp;temperature;humidity
1578;DHT22;57623;53.608;10.004;2022-09-11T00:02:48;15.70;99.90
1578;DHT22;57623;53.608;10.004;2022-09-11T00:06:06;15.70;99.90
1578;DHT22;57623;53.608;10.004;2022-09-11T00:09:18;15.70;99.90
1578;DHT22;57623;53.608;10.004;2022-09-11T00:12:24;15.70;99.90
1578;DHT22;57623;53.608;10.004;2022-09-11T00:15:34;15.70;99.90
1578;DHT22;57623;53.608;10.004;2022-09-11T00:18:31;15.70;99.90
1578;DHT22;57623;53.608;10.004;2022-09-11T00:21:45;15.70;99.90
1578;DHT22;57623;53.608;10.004;2022-09-11T00:25:08;15.70;99.90
1578;DHT22;57623;53.608;10.004;2022-09-11T00:28:11;15.70;99.90
1578;DHT22;57623;53.608;10.004;2022-09-11T00:31:16;15.70;99.90
1578;DHT22;57623;53.608;10.004;2022-09-11T00:34:34;15.70;99.90
1578;DHT22;57623;53.608;10.004;2022-09-11T00:37:54;15.70;99.90
1578;DHT22;57623;53.608;10.004;2022-09-11T00:41:03;15.60;99.90
1578;DHT22;57623;53.608;10.004;2022-09-11T00:44:06;15.60;99.90
1578;DHT22;57623;53.608;10.004;2022-09-11T00:47:08;15.60;99.90
1578;DHT22;57623;53.608;10.004;2022-09-11T00:50:20;15.70;99.90
1578;DHT22;57623;53.608;10.004;2022-09-11T00:53:22;15.60;99.90
1578;DHT22;57623;53.608;10.004;2022-09-11T00:56:38;15.60;99.90
1578;DHT22;57623;53.608;10.004;2022-09-11T00:59:42;15.60;99.90
1578;DHT22;57623;53.608;10.004;2022-09-11T01:02:43;15.60;99.90
1578;DHT22;57623;53.608;10.004;2022-09-11T01:05:53;15.60;99.90
1578;DHT22;57623;53.608;10.004;2022-09-11T01:08:47;15.60;99.90
1578;DHT22;57623;53.608;10.004;2022-09-11T01:12:20;15.60;99.90
1578;DHT22;57623;53.608;10.004;2022-09-11T01:15:46;15.60;99.90
1578;DHT22;57623;53.608;10.004;2022-09-11T01:19:30;15.60;99.90
1578;DHT22;57623;53.608;10.004;2022-09-11T01:22:56;15.60;99.90
1578;DHT22;57623;53.608;10.004;2022-09-11T01:29:52;15.60;99.90
1578;DHT22;57623;53.608;10.004;2022-09-11T01:33:15;15.60;99.90
1578;DHT22;57623;53.608;10.004;2022-09-11T01:36:47;15.60;99.90
1578;DHT22;57623;53.608;10.004;2022-09-11T01:40:08;15.60;99.90
1578;DHT22;57623;53.608;10.004;2022-09-11T01:43:20;15.60;99.90
1578;DHT22;57623;53.608;10.004;2022-09-11T01:47:06;15.60;99.90
1578;DHT22;57623;53.608;10.004;2022-09-11T01:50:19;15.60;99.90
1578;DHT22;57623;53.608;10.004;2022-09-11T01:53:25;15.60;99.90
1578;DHT22;57623;53.608;10.004;2022-09-11T01:56:28;15.60;99.90
1578;DHT22;57623;53.608;10.004;2022-09-11T01:59:42;15.60;99.90
1578;DHT22;57623;53.608;10.004;2022-09-11T02:02:48;15.60;99.90
1578;DHT22;57623;53.608;10.004;2022-09-11T02:05:48;15.60;99.90
1578;DHT22;57623;53.608;10.004;2022-09-11T02:08:59;15.60;99.90
1578;DHT22;57623;53.608;10.004;2022-09-11T02:15:30;15.60;99.90
1578;DHT22;57623;53.608;10.004;2022-09-11T02:18:38;15.70;99.90
1578;DHT22;57623;53.608;10.004;2022-09-11T02:22:00;15.70;99.90
1578;DHT22;57623;53.608;10.004;2022-09-11T02:28:30;15.70;99.90
1578;DHT22;57623;53.608;10.004;2022-09-11T02:31:59;15.60;99.90
1578;DHT22;57623;53.608;10.004;2022-09-11T02:35:10;15.60;99.90
1578;DHT22;57623;53.608;10.004;2022-09-11T02:38:56;15.60;99.90
1578;DHT22;57623;53.608;10.004;2022-09-11T02:42:18;15.70;99.90
1578;DHT22;57623;53.608;10.004;2022-09-11T02:45:42;15.60;99.90
1578;DHT22;57623;53.608;10.004;2022-09-11T02:48:58;15.60;99.90
1578;DHT22;57623;53.608;10.004;2022-09-11T02:52:03;15.60;99.90
1578;DHT22;57623;53.608;10.004;2022-09-11T02:55:16;15.60;99.90
1578;DHT22;57623;53.608;10.004;2022-09-11T02:58:33;15.60;99.90
1578;DHT22;57623;53.608;10.004;2022-09-11T03:01:59;15.60;99.90
1578;DHT22;57623;53.608;10.004;2022-09-11T03:04:58;15.60;99.90
1578;DHT22;57623;53.608;10.004;2022-09-11T03:08:04;15.60;99.90
1578;DHT22;57623;53.608;10.004;2022-09-11T03:11:09;15.60;99.90
1578;DHT22;57623;53.608;10.004;2022-09-11T03:14:43;15.60;99.90
1578;DHT22;57623;53.608;10.004;2022-09-11T03:17:42;15.50;99.90
1578;DHT22;57623;53.608;10.004;2022-09-11T03:20:59;15.50;99.90
1578;DHT22;57623;53.608;10.004;2022-09-11T03:24:09;15.50;99.90
1578;DHT22;57623;53.608;10.004;2022-09-11T03:27:08;15.50;99.90
1578;DHT22;57623;53.608;10.004;2022-09-11T03:30:20;15.50;99.90
1578;DHT22;57623;53.608;10.004;2022-09-11T03:33:17;15.50;99.90
1578;DHT22;57623;53.608;10.004;2022-09-11T03:36:36;15.60;99.90
1578;DHT22;57623;53.608;10.004;2022-09-11T03:42:52;15.50;99.90
1578;DHT22;57623;53.608;10.004;2022-09-11T03:46:32;15.50;99.90
1578;DHT22;57623;53.608;10.004;2022-09-11T03:49:51;15.50;99.90
1578;DHT22;57623;53.608;10.004;2022-09-11T03:53:05;15.50;99.90
1578;DHT22;57623;53.608;10.004;2022-09-11T03:56:29;15.50;99.90
1578;DHT22;57623;53.608;10.004;2022-09-11T03:59:31;15.50;99.90
1578;DHT22;57623;53.608;10.004;2022-09-11T04:02:54;15.50;99.90
1578;DHT22;57623;53.608;10.004;2022-09-11T04:06:00;15.50;99.90
1578;DHT22;57623;53.608;10.004;2022-09-11T04:09:28;15.50;99.90
1578;DHT22;57623;53.608;10.004;2022-09-11T04:12:57;15.50;99.90
1578;DHT22;57623;53.608;10.004;2022-09-11T04:16:18;15.50;99.90
1578;DHT22;57623;53.608;10.004;2022-09-11T04:19:25;15.50;99.90
1578;DHT22;57623;53.608;10.004;2022-09-11T04:22:33;15.50;99.90
1578;DHT22;57623;53.608;10.004;2022-09-11T04:25:34;15.50;99.90
1578;DHT22;57623;53.608;10.004;2022-09-11T04:29:01;15.50;99.90
1578;DHT22;57623;53.608;10.004;2022-09-11T04:32:12;15.50;99.90
1578;DHT22;57623;53.608;10.004;2022-09-11T04:35:28;15.50;99.90
1578;DHT22;57623;53.608;10.004;2022-09-11T04:38:42;15.50;99.90
1578;DHT22;57623;53.608;10.004;2022-09-11T04:41:50;15.50;99.90
1578;DHT22;57623;53.608;10.004;2022-09-11T04:45:05;15.50;99.90
1578;DHT22;57623;53.608;10.004;2022-09-11T04:48:14;15.50;99.90
1578;DHT22;57623;53.608;10.004;2022-09-11T04:51:24;15.50;99.90
1578;DHT22;57623;53.608;10.004;2022-09-11T04:54:23;15.50;99.90
1578;DHT22;57623;53.608;10.004;2022-09-11T04:57:31;15.50;99.90
1578;DHT22;57623;53.608;10.004;2022-09-11T05:00:38;15.40;99.90
1578;DHT22;57623;53.608;10.004;2022-09-11T05:03:59;15.40;99.90
1578;DHT22;57623;53.608;10.004;2022-09-11T05:07:02;15.40;99.90
1578;DHT22;57623;53.608;10.004;2022-09-11T05:10:10;15.40;99.90
1578;DHT22;57623;53.608;10.004;2022-09-11T05:13:21;15.40;99.90
1578;DHT22;57623;53.608;10.004;2022-09-11T05:16:46;15.40;99.90
1578;DHT22;57623;53.608;10.004;2022-09-11T05:19:53;15.40;99.90
1578;DHT22;57623;53.608;10.004;2022-09-11T05:23:02;15.40;99.90
1578;DHT22;57623;53.608;10.004;2022-09-11T05:26:35;15.40;99.90
1578;DHT22;57623;53.608;10.004;2022-09-11T05:29:43;15.40;99.90
1578;DHT22;57623;53.608;10.004;2022-09-11T05:33:03;15.40;99.90
1578;DHT22;57623;53.608;10.004;2022-09-11T05:36:22;15.40;99.90
1578;DHT22;57623;53.608;10.004;2022-09-11T05:39:31;15.40;99.90
1578;DHT22;57623;53.608;10.004;2022-09-11T05:42:21;15.40;99.90
1578;DHT22;57623;53.608;10.004;2022-09-11T05:45:34;15.40;99.90
1578;DHT22;57623;53.608;10.004;2022-09-11T05:49:02;15.50;99.90
1578;DHT22;57623;53.608;10.004;2022-09-11T05:52:36;15.50;99.90
1578;DHT22;57623;53.608;10.004;2022-09-11T05:55:49;15.50;99.90
1578;DHT22;57623;53.608;10.004;2022-09-11T05:58:55;15.50;99.90
1578;DHT22;57623;53.608;10.004;2022-09-11T06:01:50;15.50;99.90
1578;DHT22;57623;53.608;10.004;2022-09-11T06:04:42;15.50;99.90
1578;DHT22;57623;53.608;10.004;2022-09-11T06:07:31;15.60;99.90
1578;DHT22;57623;53.608;10.004;2022-09-11T06:10:24;15.50;99.90
1578;DHT22;57623;53.608;10.004;2022-09-11T06:13:22;15.60;99.90
1578;DHT22;57623;53.608;10.004;2022-09-11T06:16:15;15.60;99.90
1578;DHT22;57623;53.608;10.004;2022-09-11T06:19:05;15.60;99.90
1578;DHT22;57623;53.608;10.004;2022-09-11T06:21:55;15.60;99.90
1578;DHT22;57623;53.608;10.004;2022-09-11T06:24:44;15.70;99.90
1578;DHT22;57623;53.608;10.004;2022-09-11T06:27:35;15.70;99.90
1578;DHT22;57623;53.608;10.004;2022-09-11T06:30:26;15.70;99.90
1578;DHT22;57623;53.608;10.004;2022-09-11T06:33:23;15.80;99.90
1578;DHT22;57623;53.608;10.004;2022-09-11T06:36:13;15.80;99.90
1578;DHT22;57623;53.608;10.004;2022-09-11T06:39:04;15.90;99.90
1578;DHT22;57623;53.608;10.004;2022-09-11T06:41:53;15.90;99.90
1578;DHT22;57623;53.608;10.004;2022-09-11T06:44:41;15.90;99.90
1578;DHT22;57623;53.608;10.004;2022-09-11T06:47:34;15.90;99.90
1578;DHT22;57623;53.608;10.004;2022-09-11T06:50:24;15.90;99.90
1578;DHT22;57623;53.608;10.004;2022-09-11T06:53:13;16.00;99.90
1578;DHT22;57623;53.608;10.004;2022-09-11T06:56:04;16.00;99.90
1578;DHT22;57623;53.608;10.004;2022-09-11T06:58:52;16.00;99.90
1578;DHT22;57623;53.608;10.004;2022-09-11T07:01:41;16.00;99.90
1578;DHT22;57623;53.608;10.004;2022-09-11T07:04:30;16.00;99.90
1578;DHT22;57623;53.608;10.004;2022-09-11T07:07:18;16.00;99.90
1578;DHT22;57623;53.608;10.004;2022-09-11T07:10:08;16.00;99.90
1578;DHT22;57623;53.608;10.004;2022-09-11T07:12:58;16.00;99.90
1578;DHT22;57623;53.608;10.004;2022-09-11T07:15:46;16.00;99.90
1578;DHT22;57623;53.608;10.004;2022-09-11T07:18:35;16.00;99.90
1578;DHT22;57623;53.608;10.004;2022-09-11T07:21:28;16.10;99.90
1578;DHT22;57623;53.608;10.004;2022-09-11T07:24:17;16.10;99.90
1578;DHT22;57623;53.608;10.004;2022-09-11T07:27:07;16.10;99.90
1578;DHT22;57623;53.608;10.004;2022-09-11T07:29:57;16.10;99.90
1578;DHT22;57623;53.608;10.004;2022-09-11T07:32:48;16.20;99.90
1578;DHT22;57623;53.608;10.004;2022-09-11T07:35:36;16.20;99.90
1578;DHT22;57623;53.608;10.004;2022-09-11T07:38:24;16.30;99.90
1578;DHT22;57623;53.608;10.004;2022-09-11T07:41:17;16.30;99.90
1578;DHT22;57623;53.608;10.004;2022-09-11T07:44:05;16.40;99.90
1578;DHT22;57623;53.608;10.004;2022-09-11T07:46:56;16.40;99.90
1578;DHT22;57623;53.608;10.004;2022-09-11T07:49:44;16.40;99.90
1578;DHT22;57623;53.608;10.004;2022-09-11T07:52:33;16.40;99.90
1578;DHT22;57623;53.608;10.004;2022-09-11T07:55:22;16.40;99.90
1578;DHT22;57623;53.608;10.004;2022-09-11T07:58:12;16.40;99.90
1578;DHT22;57623;53.608;10.004;2022-09-11T08:01:00;16.40;99.90
1578;DHT22;57623;53.608;10.004;2022-09-11T08:03:54;16.40;99.90
1578;DHT22;57623;53.608;10.004;2022-09-11T08:06:44;16.40;99.90
1578;DHT22;57623;53.608;10.004;2022-09-11T08:09:32;16.40;99.90
1578;DHT22;57623;53.608;10.004;2022-09-11T08:12:22;16.40;99.90
1578;DHT22;57623;53.608;10.004;2022-09-11T08:15:10;16.40;99.90
1578;DHT22;57623;53.608;10.004;2022-09-11T08:17:58;16.40;99.90
1578;DHT22;57623;53.608;10.004;2022-09-11T08:20:58;16.50;99.90
1578;DHT22;57623;53.608;10.004;2022-09-11T08:23:47;16.40;99.90
1578;DHT22;57623;53.608;10.004;2022-09-11T08:26:35;16.50;99.90
1578;DHT22;57623;53.608;10.004;2022-09-11T08:29:24;16.50;99.90
1578;DHT22;57623;53.608;10.004;2022-09-11T08:32:12;16.50;99.90
1578;DHT22;57623;53.608;10.004;2022-09-11T08:35:00;16.60;99.90
1578;DHT22;57623;53.608;10.004;2022-09-11T08:37:53;16.70;99.90
1578;DHT22;57623;53.608;10.004;2022-09-11T08:40:42;16.70;99.90
1578;DHT22;57623;53.608;10.004;2022-09-11T08:43:42;16.70;99.90
1578;DHT22;57623;53.608;10.004;2022-09-11T08:46:36;16.80;99.90
1578;DHT22;57623;53.608;10.004;2022-09-11T08:49:27;16.70;99.90
1578;DHT22;57623;53.608;10.004;2022-09-11T08:52:17;16.80;99.90
1578;DHT22;57623;53.608;10.004;2022-09-11T08:55:11;16.80;99.90
1578;DHT22;57623;53.608;10.004;2022-09-11T08:58:08;16.90;99.90
1578;DHT22;57623;53.608;10.004;2022-09-11T09:01:03;16.90;99.90
1578;DHT22;57623;53.608;10.004;2022-09-11T09:04:14;17.00;99.90
1578;DHT22;57623;53.608;10.004;2022-09-11T09:07:14;17.10;99.90
1578;DHT22;57623;53.608;10.004;2022-09-11T09:10:14;17.20;99.90
1578;DHT22;57623;53.608;10.004;2022-09-11T09:13:14;17.10;99.90
1578;DHT22;57623;53.608;10.004;2022-09-11T09:16:16;17.20;99.90
1578;DHT22;57623;53.608;10.004;2022-09-11T09:19:11;17.20;99.90
1578;DHT22;57623;53.608;10.004;2022-09-11T09:22:08;17.20;99.90
1578;DHT22;57623;53.608;10.004;2022-09-11T09:25:00;17.30;99.90
1578;DHT22;57623;53.608;10.004;2022-09-11T09:27:53;17.40;99.90
1578;DHT22;57623;53.608;10.004;2022-09-11T12:59:57;20.40;99.90
1578;DHT22;57623;53.608;10.004;2022-09-11T13:02:51;21.90;99.90
1578;DHT22;57623;53.608;10.004;2022-09-11T13:05:41;21.80;99.90
1578;DHT22;57623;53.608;10.004;2022-09-11T13:08:33;21.70;99.90
1578;DHT22;57623;53.608;10.004;2022-09-11T13:11:44;21.60;99.90
1578;DHT22;57623;53.608;10.004;2022-09-11T13:14:47;21.50;99.90
1578;DHT22;57623;53.608;10.004;2022-09-11T13:17:45;21.40;99.90
1578;DHT22;57623;53.608;10.004;2022-09-11T13:20:34;21.40;99.90
1578;DHT22;57623;53.608;10.004;2022-09-11T13:23:25;21.90;99.90
1578;DHT22;57623;53.608;10.004;2022-09-11T13:26:21;22.60;99.90
1578;DHT22;57623;53.608;10.004;2022-09-11T13:29:12;23.40;99.90
1578;DHT22;57623;53.608;10.004;2022-09-11T13:32:05;24.10;99.90
1578;DHT22;57623;53.608;10.004;2022-09-11T13:35:05;24.90;99.90
1578;DHT22;57623;53.608;10.004;2022-09-11T13:37:58;25.40;99.90
1578;DHT22;57623;53.608;10.004;2022-09-11T13:40:52;25.40;99.90
1578;DHT22;57623;53.608;10.004;2022-09-11T13:43:44;25.70;99.90
1578;DHT22;57623;53.608;10.004;2022-09-11T13:46:48;26.10;99.90
1578;DHT22;57623;53.608;10.004;2022-09-11T13:49:37;26.30;99.90
1578;DHT22;57623;53.608;10.004;2022-09-11T13:52:31;25.80;99.90
1578;DHT22;57623;53.608;10.004;2022-09-11T13:55:21;25.40;99.90
1578;DHT22;57623;53.608;10.004;2022-09-11T13:58:22;24.90;99.90
1578;DHT22;57623;53.608;10.004;2022-09-11T14:01:12;24.40;99.90
1578;DHT22;57623;53.608;10.004;2022-09-11T14:04:02;24.10;99.90
1578;DHT22;57623;53.608;10.004;2022-09-11T14:06:51;23.70;99.90
1578;DHT22;57623;53.608;10.004;2022-09-11T14:09:40;23.50;99.90
1578;DHT22;57623;53.608;10.004;2022-09-11T14:12:28;23.20;99.90
1578;DHT22;57623;53.608;10.004;2022-09-11T14:15:20;23.10;99.90
1578;DHT22;57623;53.608;10.004;2022-09-11T14:18:16;22.90;99.90
1578;DHT22;57623;53.608;10.004;2022-09-11T14:21:14;22.80;99.90
1578;DHT22;57623;53.608;10.004;2022-09-11T14:24:05;22.70;99.90
1578;DHT22;57623;53.608;10.004;2022-09-11T14:27:38;22.60;99.90
1578;DHT22;57623;53.608;10.004;2022-09-11T14:30:32;22.60;99.90
1578;DHT22;57623;53.608;10.004;2022-09-11T14:33:24;22.50;99.90
1578;DHT22;57623;53.608;10.004;2022-09-11T14:36:16;22.40;99.90
1578;DHT22;57623;53.608;10.004;2022-09-11T14:39:09;22.50;99.90
1578;DHT22;57623;53.608;10.004;2022-09-11T14:42:00;22.60;99.90
1578;DHT22;57623;53.608;10.004;2022-09-11T14:44:50;22.60;99.90
1578;DHT22;57623;53.608;10.004;2022-09-11T14:47:39;22.70;99.90
1578;DHT22;57623;53.608;10.004;2022-09-11T14:50:27;22.80;99.90
1578;DHT22;57623;53.608;10.004;2022-09-11T14:53:25;22.90;99.90
1578;DHT22;57623;53.608;10.004;2022-09-11T14:56:14;23.10;99.90
1578;DHT22;57623;53.608;10.004;2022-09-11T14:59:03;23.20;99.90
1578;DHT22;57623;53.608;10.004;2022-09-11T15:01:52;23.20;99.90
1578;DHT22;57623;53.608;10.004;2022-09-11T15:04:40;23.40;99.90
1578;DHT22;57623;53.608;10.004;2022-09-11T15:07:28;23.50;99.90
1578;DHT22;57623;53.608;10.004;2022-09-11T15:10:20;23.50;99.90
1578;DHT22;57623;53.608;10.004;2022-09-11T15:13:09;23.30;99.90
1578;DHT22;57623;53.608;10.004;2022-09-11T15:15:57;23.10;99.90
1578;DHT22;57623;53.608;10.004;2022-09-11T15:18:47;23.00;99.90
1578;DHT22;57623;53.608;10.004;2022-09-11T15:21:36;22.90;99.90
1578;DHT22;57623;53.608;10.004;2022-09-11T15:24:25;22.80;99.90
1578;DHT22;57623;53.608;10.004;2022-09-11T15:27:13;22.70;99.90
1578;DHT22;57623;53.608;10.004;2022-09-11T15:30:01;22.70;99.90
1578;DHT22;57623;53.608;10.004;2022-09-11T15:32:50;22.60;99.90
1578;DHT22;57623;53.608;10.004;2022-09-11T15:35:40;22.50;99.90
1578;DHT22;57623;53.608;10.004;2022-09-11T15:38:29;22.40;99.90
1578;DHT22;57623;53.608;10.004;2022-09-11T15:41:18;22.40;99.90
1578;DHT22;57623;53.608;10.004;2022-09-11T15:44:09;22.30;99.90
1578;DHT22;57623;53.608;10.004;2022-09-11T15:46:59;22.20;99.90
1578;DHT22;57623;53.608;10.004;2022-09-11T15:49:49;22.20;99.90
1578;DHT22;57623;53.608;10.004;2022-09-11T15:52:38;22.20;99.90
1578;DHT22;57623;53.608;10.004;2022-09-11T15:55:28;22.20;99.90
1578;DHT22;57623;53.608;10.004;2022-09-11T15:58:17;22.10;99.90
1578;DHT22;57623;53.608;10.004;2022-09-11T16:01:15;22.10;99.90
1578;DHT22;57623;53.608;10.004;2022-09-11T16:04:05;22.10;99.90
1578;DHT22;57623;53.608;10.004;2022-09-11T16:06:54;22.00;99.90
1578;DHT22;57623;53.608;10.004;2022-09-11T16:09:44;22.00;99.90
1578;DHT22;57623;53.608;10.004;2022-09-11T16:12:32;22.00;99.90
1578;DHT22;57623;53.608;10.004;2022-09-11T16:15:20;22.00;99.90
1578;DHT22;57623;53.608;10.004;2022-09-11T16:18:10;21.90;99.90
1578;DHT22;57623;53.608;10.004;2022-09-11T16:20:58;21.90;99.90
1578;DHT22;57623;53.608;10.004;2022-09-11T16:23:47;21.90;99.90
1578;DHT22;57623;53.608;10.004;2022-09-11T16:26:43;21.80;99.90
1578;DHT22;57623;53.608;10.004;2022-09-11T16:29:33;21.80;99.90
1578;DHT22;57623;53.608;10.004;2022-09-11T16:32:41;21.70;99.90
1578;DHT22;57623;53.608;10.004;2022-09-11T16:35:29;21.60;99.90
1578;DHT22;57623;53.608;10.004;2022-09-11T16:38:20;21.50;99.90
1578;DHT22;57623;53.608;10.004;2022-09-11T16:41:11;21.40;99.90
1578;DHT22;57623;53.608;10.004;2022-09-11T16:44:02;21.20;99.90
1578;DHT22;57623;53.608;10.004;2022-09-11T16:46:51;21.20;99.90
1578;DHT22;57623;53.608;10.004;2022-09-11T16:49:41;21.00;99.90
1578;DHT22;57623;53.608;10.004;2022-09-11T16:52:52;20.90;99.90
1578;DHT22;57623;53.608;10.004;2022-09-11T16:55:44;20.80;99.90
1578;DHT22;57623;53.608;10.004;2022-09-11T16:58:38;20.70;99.90
1578;DHT22;57623;53.608;10.004;2022-09-11T17:01:41;20.60;99.90
1578;DHT22;57623;53.608;10.004;2022-09-11T17:04:35;20.50;99.90
1578;DHT22;57623;53.608;10.004;2022-09-11T17:07:30;20.40;99.90
1578;DHT22;57623;53.608;10.004;2022-09-11T17:10:21;20.40;99.90
1578;DHT22;57623;53.608;10.004;2022-09-11T17:13:10;20.30;99.90
1578;DHT22;57623;53.608;10.004;2022-09-11T17:16:07;20.20;99.90
1578;DHT22;57623;53.608;10.004;2022-09-11T17:19:04;20.10;99.90
1578;DHT22;57623;53.608;10.004;2022-09-11T17:21:59;20.00;99.90
1578;DHT22;57623;53.608;10.004;2022-09-11T17:24:47;20.00;99.90
1578;DHT22;57623;53.608;10.004;2022-09-11T17:27:37;19.90;99.90
1578;DHT22;57623;53.608;10.004;2022-09-11T17:30:25;19.80;99.90
1578;DHT22;57623;53.608;10.004;2022-09-11T17:33:14;19.80;99.90
1578;DHT22;57623;53.608;10.004;2022-09-11T17:36:12;19.70;99.90
1578;DHT22;57623;53.608;10.004;2022-09-11T17:39:02;19.70;99.90
1578;DHT22;57623;53.608;10.004;2022-09-11T17:41:58;19.60;99.90
1578;DHT22;57623;53.608;10.004;2022-09-11T17:44:49;19.60;99.90
1578;DHT22;57623;53.608;10.004;2022-09-11T17:47:46;19.50;99.90
1578;DHT22;57623;53.608;10.004;2022-09-11T17:50:36;19.50;99.90
1578;DHT22;57623;53.608;10.004;2022-09-11T17:53:25;19.40;99.90
1578;DHT22;57623;53.608;10.004;2022-09-11T17:56:20;19.40;99.90
1578;DHT22;57623;53.608;10.004;2022-09-11T17:59:13;19.30;99.90
1578;DHT22;57623;53.608;10.004;2022-09-11T18:02:12;19.30;99.90
1578;DHT22;57623;53.608;10.004;2022-09-11T18:05:03;19.20;99.90
1578;DHT22;57623;53.608;10.004;2022-09-11T18:07:56;19.20;99.90
1578;DHT22;57623;53.608;10.004;2022-09-11T18:10:54;19.20;99.90
1578;DHT22;57623;53.608;10.004;2022-09-11T18:13:44;19.20;99.90
1578;DHT22;57623;53.608;10.004;2022-09-11T18:16:34;19.10;99.90
1578;DHT22;57623;53.608;10.004;2022-09-11T18:19:24;19.00;99.90
1578;DHT22;57623;53.608;10.004;2022-09-11T18:22:15;19.00;99.90
1578;DHT22;57623;53.608;10.004;2022-09-11T18:25:06;19.00;99.90
1578;DHT22;57623;53.608;10.004;2022-09-11T18:28:06;19.00;99.90
1578;DHT22;57623;53.608;10.004;2022-09-11T18:31:03;18.90;99.90
1578;DHT22;57623;53.608;10.004;2022-09-11T18:33:54;18.90;99.90
1578;DHT22;57623;53.608;10.004;2022-09-11T18:36:49;18.80;99.90
1578;DHT22;57623;53.608;10.004;2022-09-11T18:39:43;18.80;99.90
1578;DHT22;57623;53.608;10.004;2022-09-11T18:42:32;18.80;99.90
1578;DHT22;57623;53.608;10.004;2022-09-11T18:45:21;18.70;99.90
1578;DHT22;57623;53.608;10.004;2022-09-11T18:48:13;18.70;99.90
1578;DHT22;57623;53.608;10.004;2022-09-11T18:51:20;18.60;99.90
1578;DHT22;57623;53.608;10.004;2022-09-11T18:54:19;18.50;99.90
1578;DHT22;57623;53.608;10.004;2022-09-11T18:57:07;18.50;99.90
1578;DHT22;57623;53.608;10.004;2022-09-11T18:59:56;18.40;99.90
1578;DHT22;57623;53.608;10.004;2022-09-11T19:02:47;18.40;99.90
1578;DHT22;57623;53.608;10.004;2022-09-11T19:05:43;18.40;99.90
1578;DHT22;57623;53.608;10.004;2022-09-11T19:08:38;18.40;99.90
1578;DHT22;57623;53.608;10.004;2022-09-11T19:11:31;18.30;99.90
1578;DHT22;57623;53.608;10.004;2022-09-11T19:14:21;18.30;99.90
1578;DHT22;57623;53.608;10.004;2022-09-11T19:17:14;18.30;99.90
1578;DHT22;57623;53.608;10.004;2022-09-11T19:20:12;18.20;99.90
1578;DHT22;57623;53.608;10.004;2022-09-11T19:23:05;18.10;99.90
1578;DHT22;57623;53.608;10.004;2022-09-11T19:25:59;18.00;99.90
1578;DHT22;57623;53.608;10.004;2022-09-11T19:28:50;18.00;99.90
1578;DHT22;57623;53.608;10.004;2022-09-11T19:31:40;17.90;99.90
1578;DHT22;57623;53.608;10.004;2022-09-11T19:34:29;17.90;99.90
1578;DHT22;57623;53.608;10.004;2022-09-11T19:37:28;17.80;99.90
1578;DHT22;57623;53.608;10.004;2022-09-11T19:40:16;17.80;99.90
1578;DHT22;57623;53.608;10.004;2022-09-11T19:43:08;17.70;99.90
1578;DHT22;57623;53.608;10.004;2022-09-11T19:46:03;17.60;99.90
1578;DHT22;57623;53.608;10.004;2022-09-11T19:49:05;17.60;99.90
1578;DHT22;57623;53.608;10.004;2022-09-11T19:52:30;17.50;99.90
1578;DHT22;57623;53.608;10.004;2022-09-11T19:55:33;17.50;99.90
1578;DHT22;57623;53.608;10.004;2022-09-11T19:58:37;17.40;99.90
1578;DHT22;57623;53.608;10.004;2022-09-11T20:01:37;17.40;99.90
1578;DHT22;57623;53.608;10.004;2022-09-11T20:04:38;17.30;99.90
1578;DHT22;57623;53.608;10.004;2022-09-11T20:07:41;17.30;99.90
1578;DHT22;57623;53.608;10.004;2022-09-11T20:10:30;17.30;99.90
1578;DHT22;57623;53.608;10.004;2022-09-11T20:13:46;17.30;99.90
1578;DHT22;57623;53.608;10.004;2022-09-11T20:16:43;17.20;99.90
1578;DHT22;57623;53.608;10.004;2022-09-11T20:19:58;17.10;99.90
1578;DHT22;57623;53.608;10.004;2022-09-11T20:23:07;17.10;99.90
1578;DHT22;57623;53.608;10.004;2022-09-11T20:26:19;16.90;99.90
1578;DHT22;57623;53.608;10.004;2022-09-11T20:29:31;16.80;99.90
1578;DHT22;57623;53.608;10.004;2022-09-11T20:32:44;16.80;99.90
1578;DHT22;57623;53.608;10.004;2022-09-11T20:35:57;16.80;99.90
1578;DHT22;57623;53.608;10.004;2022-09-11T20:39:08;16.80;99.90
1578;DHT22;57623;53.608;10.004;2022-09-11T20:42:09;16.80;99.90
1578;DHT22;57623;53.608;10.004;2022-09-11T20:45:12;16.60;99.90
1578;DHT22;57623;53.608;10.004;2022-09-11T20:48:30;16.50;99.90
1578;DHT22;57623;53.608;10.004;2022-09-11T20:52:03;16.40;99.90
1578;DHT22;57623;53.608;10.004;2022-09-11T20:55:13;16.40;99.90
1578;DHT22;57623;53.608;10.004;2022-09-11T20:58:07;16.20;99.90
1578;DHT22;57623;53.608;10.004;2022-09-11T21:01:10;16.20;99.90
1578;DHT22;57623;53.608;10.004;2022-09-11T21:04:25;16.20;99.90
1578;DHT22;57623;53.608;10.004;2022-09-11T21:07:42;16.10;99.90
1578;DHT22;57623;53.608;10.004;2022-09-11T21:10:43;16.10;99.90
1578;DHT22;57623;53.608;10.004;2022-09-11T21:13:45;16.20;99.90
1578;DHT22;57623;53.608;10.004;2022-09-11T21:16:48;16.10;99.90
1578;DHT22;57623;53.608;10.004;2022-09-11T21:19:57;15.90;99.90
1578;DHT22;57623;53.608;10.004;2022-09-11T21:23:16;15.90;99.90
1578;DHT22;57623;53.608;10.004;2022-09-11T21:26:08;15.80;99.90
1578;DHT22;57623;53.608;10.004;2022-09-11T21:29:39;15.80;99.90
1578;DHT22;57623;53.608;10.004;2022-09-11T21:32:45;15.80;99.90
1578;DHT22;57623;53.608;10.004;2022-09-11T21:35:50;15.70;99.90
1578;DHT22;57623;53.608;10.004;2022-09-11T21:38:49;15.60;99.90
1578;DHT22;57623;53.608;10.004;2022-09-11T21:42:26;15.60;99.90
1578;DHT22;57623;53.608;10.004;2022-09-11T21:49:14;15.60;99.90
1578;DHT22;57623;53.608;10.004;2022-09-11T21:52:15;15.50;99.90
1578;DHT22;57623;53.608;10.004;2022-09-11T21:55:13;15.50;99.90
1578;DHT22;57623;53.608;10.004;2022-09-11T21:58:24;15.40;99.90
1578;DHT22;57623;53.608;10.004;2022-09-11T22:01:31;15.40;99.90
1578;DHT22;57623;53.608;10.004;2022-09-11T22:04:49;15.30;99.90
1578;DHT22;57623;53.608;10.004;2022-09-11T22:07:46;15.30;99.90
1578;DHT22;57623;53.608;10.004;2022-09-11T22:10:46;15.30;99.90
1578;DHT22;57623;53.608;10.004;2022-09-11T22:13:59;15.20;99.90
1578;DHT22;57623;53.608;10.004;2022-09-11T22:17:22;15.30;99.90
1578;DHT22;57623;53.608;10.004;2022-09-11T22:20:29;15.20;99.90
1578;DHT22;57623;53.608;10.004;2022-09-11T22:23:44;15.10;99.90
1578;DHT22;57623;53.608;10.004;2022-09-11T22:26:57;15.10;99.90
1578;DHT22;57623;53.608;10.004;2022-09-11T22:30:03;15.00;99.90
1578;DHT22;57623;53.608;10.004;2022-09-11T22:33:10;15.00;99.90
1578;DHT22;57623;53.608;10.004;2022-09-11T22:36:08;14.90;99.90
1578;DHT22;57623;53.608;10.004;2022-09-11T22:39:11;14.90;99.90
1578;DHT22;57623;53.608;10.004;2022-09-11T22:42:13;14.80;99.90
1578;DHT22;57623;53.608;10.004;2022-09-11T22:45:13;14.80;99.90
1578;DHT22;57623;53.608;10.004;2022-09-11T22:48:44;14.80;99.90